Airfield :
LOGIN :

Register | Disclaimer

   EN    FR    IT 

 










Legend :    VFR   Marginal VFR   IFR   Intensive IFR   Very Intensive IFR
Visi :
Ceiling :
>= 8 km
>= 3000ft
5 to 8 km
1000 to 3000 ft
1500m to 5 km
500 to 1000 ft
800 to 1500m
200 to 500 ft
< 800m
< 200 ft
Symbols :   Thunderstorms  Fog  Heavy snow  Heavy precipitations  Wind > 20 kt
SIGMETs :     Misc.  Thunderstorms  Icing  Turbulence  Mountain Waves  Volcanic Ashes






- Airport Elevation : 648 ft
- IATA code : INI


LYNI - Nis Constantine

CURRENT METAR :
  • 070930Z 05010KT 350V080 CAVOK 15/M10 Q1032 NOSIG

EXPIRED METARs :
  • 070900Z VRB07KT CAVOK 14/M11 Q1033 NOSIG
  • 070830Z VRB05KT CAVOK 13/M10 Q1033 NOSIG
  • 070800Z 03006KT 350V080 CAVOK 12/M10 Q1033 NOSIG
  • 070730Z 05006KT 010V110 CAVOK 11/M10 Q1033 NOSIG

TAF TAF LYNI
Valid from the 07 at 06:00 until the 08 at 06:00 UTC


070500Z 0706/0806 02005KT CAVOK TX18/0713Z TN04/0804Z
TEMPO 0710/0719 05015KT



MET'MAP, your aeronautical weather chart ! - Copyright ORBIFLY December 2007 - Disclaimer

ORBIFLY MET'MAP TEAM :

Programming & Development : Alexandra Zaïnal
Concept & original design : Baudouin d'Aumeries
Assistance for programming : Marc-Olivier Méhu
Technical & hardware support : Manuel Goepfert

Contact : metmap@orbifly.com




SOURCES & CREDITS :

   NOAA